createdAt,value
2016-12-16T00:00:40.089Z,0
2016-12-16T00:01:49.089Z,0
2016-12-16T00:02:58.413Z,0
2016-12-16T00:04:07.728Z,0
2016-12-16T00:05:17.054Z,0
2016-12-16T00:06:26.367Z,0
2016-12-16T00:07:35.389Z,0
2016-12-16T00:08:44.395Z,0
2016-12-16T00:09:53.706Z,0
2016-12-16T00:11:02.807Z,0
2016-12-16T00:12:11.809Z,0
2016-12-16T00:13:20.519Z,0
2016-12-16T00:14:29.517Z,0
2016-12-16T00:15:38.810Z,0
2016-12-16T00:16:48.450Z,0
2016-12-16T00:17:57.760Z,0
2016-12-16T00:19:06.858Z,0
2016-12-16T00:20:15.559Z,0
2016-12-16T00:21:24.256Z,0
2016-12-16T00:22:33.456Z,0
2016-12-16T00:23:42.471Z,0
2016-12-16T00:24:51.227Z,0
2016-12-16T00:26:00.546Z,0
2016-12-16T00:27:10.442Z,0
2016-12-16T00:28:20.083Z,0
2016-12-16T00:29:28.766Z,0
2016-12-16T00:30:37.832Z,0
2016-12-16T00:31:46.846Z,0
2016-12-16T00:32:56.154Z,0
2016-12-16T00:34:05.147Z,0
2016-12-16T00:35:14.755Z,0
2016-12-16T00:36:24.654Z,0
2016-12-16T00:37:33.660Z,0
2016-12-16T00:38:43.006Z,0
2016-12-16T00:39:51.851Z,0
2016-12-16T00:41:01.145Z,0
2016-12-16T00:42:10.551Z,0
2016-12-16T00:43:19.262Z,0
2016-12-16T00:44:28.254Z,0
2016-12-16T00:45:37.621Z,0
2016-12-16T00:46:46.300Z,0
2016-12-16T00:47:55.001Z,0
2016-12-16T00:49:04.608Z,0
2016-12-16T00:50:14.211Z,0
2016-12-16T00:51:23.020Z,0
2016-12-16T00:52:32.033Z,0
2016-12-16T00:53:41.632Z,0
2016-12-16T00:54:50.321Z,0
2016-12-16T00:55:59.038Z,0
2016-12-16T00:57:08.650Z,0
2016-12-16T00:58:17.639Z,0
2016-12-16T00:59:26.932Z,0
2016-12-16T01:00:36.224Z,0
2016-12-16T01:01:45.518Z,0
2016-12-16T01:02:54.920Z,0
2016-12-16T01:04:04.542Z,0
2016-12-16T01:05:13.522Z,0
2016-12-16T01:06:22.202Z,0
2016-12-16T01:07:30.880Z,0
2016-12-16T01:08:40.036Z,0
2016-12-16T01:09:48.713Z,0
2016-12-16T01:10:58.013Z,0
2016-12-16T01:12:07.062Z,0
2016-12-16T01:13:16.057Z,0
2016-12-16T01:14:25.115Z,0
2016-12-16T01:15:34.104Z,0
2016-12-16T01:16:43.102Z,0
2016-12-16T01:17:52.101Z,0
2016-12-16T01:19:01.100Z,0
2016-12-16T01:20:09.781Z,0
2016-12-16T01:21:19.109Z,0
2016-12-16T01:22:28.714Z,0
2016-12-16T01:23:38.371Z,0
2016-12-16T01:24:47.358Z,0
2016-12-16T01:25:56.138Z,0
2016-12-16T01:27:05.441Z,0
2016-12-16T01:28:14.471Z,0
2016-12-16T01:29:23.153Z,0
2016-12-16T01:30:32.149Z,0
2016-12-16T01:31:41.138Z,0
2016-12-16T01:32:50.133Z,0
2016-12-16T01:33:59.432Z,0
2016-12-16T01:35:09.051Z,0
2016-12-16T01:36:18.391Z,0
2016-12-16T01:37:27.988Z,0
2016-12-16T01:38:36.994Z,0
2016-12-16T01:39:46.326Z,0
2016-12-16T01:40:54.999Z,0
2016-12-16T01:42:04.297Z,0
2016-12-16T01:43:13.285Z,0
2016-12-16T01:44:22.588Z,0
2016-12-16T01:45:32.230Z,0
2016-12-16T01:46:41.225Z,0
2016-12-16T01:47:50.228Z,0
2016-12-16T01:48:59.378Z,0
2016-12-16T01:50:08.067Z,0
2016-12-16T01:51:16.773Z,0
2016-12-16T01:52:25.766Z,0
2016-12-16T01:53:34.753Z,0
2016-12-16T01:54:43.473Z,0
2016-12-16T01:55:52.770Z,0
2016-12-16T01:57:01.439Z,0
2016-12-16T01:58:11.044Z,0
2016-12-16T01:59:20.337Z,0
2016-12-16T02:00:29.372Z,0
2016-12-16T02:01:38.417Z,0
2016-12-16T02:02:47.097Z,0
2016-12-16T02:03:55.817Z,0
2016-12-16T02:05:04.815Z,0
2016-12-16T02:06:13.937Z,0
2016-12-16T02:07:22.933Z,0
2016-12-16T02:08:32.288Z,0
2016-12-16T02:09:41.293Z,0
2016-12-16T02:10:50.593Z,0
2016-12-16T02:11:59.631Z,0
2016-12-16T02:13:08.945Z,0
2016-12-16T02:14:18.552Z,0
2016-12-16T02:15:27.868Z,0
2016-12-16T02:16:37.477Z,0
2016-12-16T02:17:47.143Z,0
2016-12-16T02:18:55.826Z,0
2016-12-16T02:20:04.820Z,0
2016-12-16T02:21:14.115Z,0
2016-12-16T02:22:22.822Z,0
2016-12-16T02:23:32.259Z,0
2016-12-16T02:24:41.247Z,0
2016-12-16T02:25:50.229Z,0
2016-12-16T02:26:58.911Z,0
2016-12-16T02:28:07.608Z,0
2016-12-16T02:29:16.693Z,0
2016-12-16T02:30:25.985Z,0
2016-12-16T02:31:34.975Z,0
2016-12-16T02:32:43.655Z,0
2016-12-16T02:33:52.653Z,0
2016-12-16T02:35:01.346Z,0
2016-12-16T02:36:10.664Z,0
2016-12-16T02:37:19.344Z,0
2016-12-16T02:38:28.656Z,0
2016-12-16T02:39:37.639Z,0
2016-12-16T02:40:46.929Z,0
2016-12-16T02:41:56.528Z,0
2016-12-16T02:43:05.505Z,0
2016-12-16T02:44:14.184Z,0
2016-12-16T02:45:23.171Z,0
2016-12-16T02:46:32.260Z,0
2016-12-16T02:47:40.935Z,0
2016-12-16T02:48:49.915Z,0
2016-12-16T02:49:58.901Z,0
2016-12-16T02:51:07.586Z,0
2016-12-16T02:52:16.412Z,0
2016-12-16T02:53:25.715Z,0
2016-12-16T02:54:35.006Z,0
2016-12-16T02:55:43.681Z,0
2016-12-16T02:56:52.376Z,0
2016-12-16T02:58:01.771Z,0
2016-12-16T02:59:11.070Z,0
2016-12-16T03:00:19.788Z,0
2016-12-16T03:01:28.471Z,0
2016-12-16T03:02:37.138Z,0
2016-12-16T03:03:46.137Z,0
2016-12-16T03:04:54.836Z,0
2016-12-16T03:06:03.541Z,0
2016-12-16T03:07:12.253Z,0
2016-12-16T03:08:21.256Z,0
2016-12-16T03:09:30.241Z,0
2016-12-16T03:10:38.991Z,0
2016-12-16T03:11:47.991Z,0
2016-12-16T03:12:56.983Z,0
2016-12-16T03:14:05.985Z,0
2016-12-16T03:15:15.010Z,0
2016-12-16T03:16:24.057Z,0
2016-12-16T03:17:33.038Z,0
2016-12-16T03:18:42.336Z,0
2016-12-16T03:19:51.044Z,0
2016-12-16T03:21:00.357Z,0
2016-12-16T03:22:09.352Z,0
2016-12-16T03:23:18.948Z,0
2016-12-16T03:24:27.631Z,0
2016-12-16T03:25:36.610Z,0
2016-12-16T03:26:45.313Z,0
2016-12-16T03:27:53.996Z,0
2016-12-16T03:29:02.986Z,0
2016-12-16T03:30:12.297Z,0
2016-12-16T03:31:21.590Z,0
2016-12-16T03:32:30.931Z,0
2016-12-16T03:33:39.921Z,0
2016-12-16T03:34:48.912Z,0
2016-12-16T03:35:57.595Z,0
2016-12-16T03:37:06.895Z,0
2016-12-16T03:38:15.574Z,0
2016-12-16T03:39:24.555Z,0
2016-12-16T03:40:33.545Z,0
2016-12-16T03:41:42.250Z,0
2016-12-16T03:42:50.934Z,0
2016-12-16T03:43:59.765Z,0
2016-12-16T03:45:09.050Z,0
2016-12-16T03:46:18.344Z,0
2016-12-16T03:47:27.642Z,0
2016-12-16T03:48:36.924Z,0
2016-12-16T03:49:46.230Z,0
2016-12-16T03:50:55.204Z,0
2016-12-16T03:52:05.120Z,0
2016-12-16T03:53:14.122Z,0
2016-12-16T03:54:23.426Z,0
2016-12-16T03:55:33.076Z,0
2016-12-16T03:56:42.373Z,0
2016-12-16T03:57:51.359Z,0
2016-12-16T03:59:00.036Z,0
2016-12-16T04:00:08.715Z,0
2016-12-16T04:01:18.001Z,0
2016-12-16T04:02:26.682Z,0
2016-12-16T04:03:35.980Z,0
2016-12-16T04:04:45.272Z,0
2016-12-16T04:05:53.966Z,0
2016-12-16T04:07:02.965Z,0
2016-12-16T04:08:11.965Z,0
2016-12-16T04:09:20.956Z,0
2016-12-16T04:10:29.658Z,0
2016-12-16T04:11:39.259Z,0
2016-12-16T04:12:48.555Z,0
2016-12-16T04:13:57.550Z,0
2016-12-16T04:15:06.542Z,0
2016-12-16T04:16:15.558Z,0
2016-12-16T04:17:25.186Z,0
2016-12-16T04:18:34.514Z,0
2016-12-16T04:19:43.501Z,0
2016-12-16T04:20:52.478Z,0
2016-12-16T04:22:01.467Z,0
2016-12-16T04:23:10.776Z,0
2016-12-16T04:24:19.496Z,0
2016-12-16T04:25:28.502Z,0
2016-12-16T04:26:37.496Z,0
2016-12-16T04:27:46.814Z,0
2016-12-16T04:28:55.819Z,0
2016-12-16T04:30:04.863Z,0
2016-12-16T04:31:13.555Z,0
2016-12-16T04:32:22.848Z,0
2016-12-16T04:33:32.144Z,0
2016-12-16T04:34:41.147Z,0
2016-12-16T04:35:50.296Z,0
2016-12-16T04:36:59.582Z,0
2016-12-16T04:38:08.892Z,0
2016-12-16T04:39:17.911Z,0
2016-12-16T04:40:27.197Z,0
2016-12-16T04:41:36.629Z,0
2016-12-16T04:42:45.957Z,0
2016-12-16T04:43:54.949Z,0
2016-12-16T04:45:04.857Z,0
2016-12-16T04:46:14.461Z,0
2016-12-16T04:47:23.173Z,0
2016-12-16T04:48:32.153Z,0
2016-12-16T04:49:40.836Z,0
2016-12-16T04:50:49.506Z,0
2016-12-16T04:51:58.179Z,0
2016-12-16T04:53:07.477Z,0
2016-12-16T04:54:16.763Z,0
2016-12-16T04:55:25.461Z,0
2016-12-16T04:56:34.747Z,0
2016-12-16T04:57:43.428Z,0
2016-12-16T04:58:52.271Z,0
2016-12-16T05:00:01.271Z,0
2016-12-16T05:01:09.947Z,0
2016-12-16T05:02:18.933Z,0
2016-12-16T05:03:27.961Z,0
2016-12-16T05:04:37.247Z,0
2016-12-16T05:05:46.234Z,0
2016-12-16T05:06:54.918Z,0
2016-12-16T05:08:03.904Z,0
2016-12-16T05:09:13.188Z,0
2016-12-16T05:10:22.553Z,0
2016-12-16T05:11:31.235Z,0
2016-12-16T05:12:39.916Z,0
2016-12-16T05:13:49.520Z,0
2016-12-16T05:14:58.503Z,0
2016-12-16T05:16:07.183Z,0
2016-12-16T05:17:16.516Z,0
2016-12-16T05:18:25.816Z,0
2016-12-16T05:19:35.144Z,0
2016-12-16T05:20:44.139Z,0
2016-12-16T05:21:53.119Z,0
2016-12-16T05:23:02.114Z,0
2016-12-16T05:24:11.111Z,0
2016-12-16T05:25:20.396Z,0
2016-12-16T05:26:29.191Z,0
2016-12-16T05:27:38.525Z,0
2016-12-16T05:28:47.548Z,0
2016-12-16T05:29:56.861Z,0
2016-12-16T05:31:05.943Z,0
2016-12-16T05:32:14.644Z,0
2016-12-16T05:33:23.423Z,0
2016-12-16T05:34:32.138Z,0
2016-12-16T05:35:41.752Z,0
2016-12-16T05:36:50.744Z,0
2016-12-16T05:38:00.040Z,0
2016-12-16T05:39:08.720Z,0
2016-12-16T05:40:17.720Z,0
2016-12-16T05:41:26.703Z,0
2016-12-16T05:42:35.398Z,0
2016-12-16T05:43:44.080Z,0
2016-12-16T05:44:52.773Z,0
2016-12-16T05:46:01.459Z,0
2016-12-16T05:47:10.442Z,0
2016-12-16T05:48:19.120Z,0
2016-12-16T05:49:28.103Z,0
2016-12-16T05:50:37.090Z,0
2016-12-16T05:51:46.083Z,0
2016-12-16T05:52:55.696Z,0
2016-12-16T05:54:04.731Z,0
2016-12-16T05:55:13.731Z,0
2016-12-16T05:56:22.814Z,0
2016-12-16T05:57:32.122Z,0
2016-12-16T05:58:41.411Z,0
2016-12-16T05:59:50.701Z,0
2016-12-16T06:00:59.375Z,0
2016-12-16T06:02:08.762Z,0
2016-12-16T06:03:18.048Z,0
2016-12-16T06:04:27.353Z,0
2016-12-16T06:05:36.336Z,0
2016-12-16T06:06:45.361Z,0
2016-12-16T06:07:54.338Z,0
2016-12-16T06:09:03.320Z,0
2016-12-16T06:10:12.730Z,0
2016-12-16T06:11:22.324Z,4
2016-12-16T06:12:31.930Z,4
2016-12-16T06:13:41.392Z,4
2016-12-16T06:14:50.385Z,4
2016-12-16T06:15:59.361Z,4
2016-12-16T06:17:08.343Z,4
2016-12-16T06:18:17.026Z,4
2016-12-16T06:19:25.793Z,4
2016-12-16T06:20:34.473Z,4
2016-12-16T06:21:43.510Z,8
2016-12-16T06:22:52.868Z,4
2016-12-16T06:24:01.859Z,4
2016-12-16T06:25:10.993Z,4
2016-12-16T06:26:20.598Z,4
2016-12-16T06:27:29.890Z,4
2016-12-16T06:28:39.492Z,4
2016-12-16T06:29:48.490Z,4
2016-12-16T06:30:57.779Z,4
2016-12-16T06:32:06.770Z,4
2016-12-16T06:33:15.450Z,4
2016-12-16T06:34:24.743Z,4
2016-12-16T06:35:34.040Z,4
2016-12-16T06:36:43.190Z,4
2016-12-16T06:37:52.809Z,4
2016-12-16T06:39:01.801Z,4
2016-12-16T06:40:11.106Z,4
2016-12-16T06:41:19.781Z,4
2016-12-16T06:42:28.763Z,4
2016-12-16T06:43:37.753Z,4
2016-12-16T06:44:46.764Z,4
2016-12-16T06:45:56.065Z,4
2016-12-16T06:47:04.824Z,4
2016-12-16T06:48:13.683Z,4
2016-12-16T06:49:22.704Z,4
2016-12-16T06:50:31.774Z,4
2016-12-16T06:51:41.068Z,4
2016-12-16T06:52:49.794Z,4
2016-12-16T06:53:59.160Z,4
2016-12-16T06:55:08.207Z,4
2016-12-16T06:56:17.815Z,4
2016-12-16T06:57:27.402Z,4
2016-12-16T06:58:37.316Z,4
2016-12-16T06:59:46.141Z,0
2016-12-16T07:00:54.837Z,0
2016-12-16T07:02:04.120Z,4
2016-12-16T07:03:12.795Z,4
2016-12-16T07:04:22.119Z,4
2016-12-16T07:05:31.259Z,4
2016-12-16T07:06:40.248Z,4
2016-12-16T07:07:49.243Z,4
2016-12-16T07:08:57.933Z,8
2016-12-16T07:10:06.940Z,4
2016-12-16T07:11:16.228Z,4
2016-12-16T07:12:25.560Z,8
2016-12-16T07:13:34.234Z,8
2016-12-16T07:14:42.923Z,8
2016-12-16T07:15:51.622Z,8
2016-12-16T07:17:01.023Z,12
2016-12-16T07:18:10.007Z,12
2016-12-16T07:19:19.614Z,12
2016-12-16T07:20:28.905Z,12
2016-12-16T07:21:37.904Z,12
2016-12-16T07:22:47.368Z,12
2016-12-16T07:23:56.367Z,16
2016-12-16T07:25:05.345Z,20
2016-12-16T07:26:14.359Z,20
2016-12-16T07:27:23.356Z,20
2016-12-16T07:28:32.979Z,20
2016-12-16T07:29:42.585Z,28
2016-12-16T07:30:51.896Z,28
2016-12-16T07:32:00.906Z,28
2016-12-16T07:33:10.216Z,32
2016-12-16T07:34:19.218Z,32
2016-12-16T07:35:28.245Z,36
2016-12-16T07:36:37.235Z,40
2016-12-16T07:37:46.239Z,44
2016-12-16T07:38:54.934Z,44
2016-12-16T07:40:03.622Z,48
2016-12-16T07:41:12.306Z,52
2016-12-16T07:42:20.991Z,56
2016-12-16T07:43:30.289Z,60
2016-12-16T07:44:39.289Z,60
2016-12-16T07:45:48.224Z,72
2016-12-16T07:46:57.535Z,76
2016-12-16T07:48:06.535Z,76
2016-12-16T07:49:15.535Z,84
2016-12-16T07:50:24.518Z,88
2016-12-16T07:51:33.617Z,88
2016-12-16T07:52:42.610Z,96
2016-12-16T07:53:51.608Z,96
2016-12-16T07:55:01.517Z,104
2016-12-16T07:56:10.513Z,104
2016-12-16T07:57:19.514Z,108
2016-12-16T07:58:28.506Z,108
2016-12-16T07:59:37.797Z,116
2016-12-16T08:00:46.785Z,124
2016-12-16T08:01:55.777Z,128
2016-12-16T08:03:04.771Z,132
2016-12-16T08:04:13.763Z,128
2016-12-16T08:05:22.754Z,136
2016-12-16T08:06:32.096Z,144
2016-12-16T08:07:40.776Z,144
2016-12-16T08:08:50.080Z,152
2016-12-16T08:09:59.102Z,160
2016-12-16T08:11:08.102Z,160
2016-12-16T08:12:17.094Z,164
2016-12-16T08:13:26.702Z,168
2016-12-16T08:14:35.394Z,180
2016-12-16T08:15:44.700Z,184
2016-12-16T08:16:53.699Z,180
2016-12-16T08:18:02.707Z,204
2016-12-16T08:19:11.703Z,184
2016-12-16T08:20:20.798Z,196
2016-12-16T08:21:30.111Z,212
2016-12-16T08:22:39.110Z,212
2016-12-16T08:23:48.149Z,236
2016-12-16T08:24:57.452Z,212
2016-12-16T08:26:06.863Z,228
2016-12-16T08:27:15.856Z,228
2016-12-16T08:28:25.164Z,244
2016-12-16T08:29:33.863Z,240
2016-12-16T08:30:42.566Z,244
2016-12-16T08:31:52.012Z,260
2016-12-16T08:33:01.321Z,260
2016-12-16T08:34:10.315Z,276
2016-12-16T08:35:19.305Z,284
2016-12-16T08:36:28.292Z,312
2016-12-16T08:37:37.383Z,328
2016-12-16T08:38:46.076Z,292
2016-12-16T08:39:54.769Z,316
2016-12-16T08:41:03.472Z,300
2016-12-16T08:42:12.772Z,324
2016-12-16T08:43:22.416Z,328
2016-12-16T08:44:31.164Z,340
2016-12-16T08:45:39.858Z,348
2016-12-16T08:46:48.552Z,352
2016-12-16T08:47:58.159Z,348
2016-12-16T08:49:07.610Z,352
2016-12-16T08:50:16.298Z,360
2016-12-16T08:51:25.296Z,360
2016-12-16T08:52:34.291Z,344
2016-12-16T08:53:43.288Z,364
2016-12-16T08:54:53.045Z,392
2016-12-16T08:56:02.052Z,380
2016-12-16T08:57:10.750Z,420
2016-12-16T08:58:19.749Z,412
2016-12-16T08:59:28.444Z,408
2016-12-16T09:00:37.295Z,480
2016-12-16T09:01:45.987Z,436
2016-12-16T09:02:54.678Z,520
2016-12-16T09:04:03.672Z,448
2016-12-16T09:05:12.996Z,488
2016-12-16T09:06:22.062Z,464
2016-12-16T09:07:31.673Z,440
2016-12-16T09:08:40.998Z,476
2016-12-16T09:09:50.324Z,436
2016-12-16T09:10:59.632Z,484
2016-12-16T09:12:08.744Z,484
2016-12-16T09:13:18.056Z,476
2016-12-16T09:14:26.748Z,480
2016-12-16T09:15:35.441Z,484
2016-12-16T09:16:44.131Z,484
2016-12-16T09:17:53.233Z,508
2016-12-16T09:19:02.234Z,508
2016-12-16T09:20:11.558Z,520
2016-12-16T09:21:20.251Z,548
2016-12-16T09:22:29.245Z,520
2016-12-16T09:23:37.920Z,544
2016-12-16T09:24:46.605Z,592
2016-12-16T09:25:55.605Z,552
2016-12-16T09:27:04.938Z,592
2016-12-16T09:28:13.643Z,548
2016-12-16T09:29:22.655Z,616
2016-12-16T09:30:31.663Z,620
2016-12-16T09:31:40.963Z,552
2016-12-16T09:32:50.269Z,600
2016-12-16T09:33:59.286Z,604
2016-12-16T09:35:08.898Z,616
2016-12-16T09:36:17.918Z,620
2016-12-16T09:37:26.627Z,632
2016-12-16T09:38:35.348Z,596
2016-12-16T09:39:44.646Z,620
2016-12-16T09:40:53.354Z,604
2016-12-16T09:42:02.990Z,656
2016-12-16T09:43:12.289Z,652
2016-12-16T09:44:21.288Z,632
2016-12-16T09:45:30.589Z,656
2016-12-16T09:46:39.737Z,620
2016-12-16T09:47:49.651Z,648
2016-12-16T09:48:58.649Z,664
2016-12-16T09:50:07.975Z,676
2016-12-16T09:51:16.967Z,648
2016-12-16T09:52:26.563Z,676
2016-12-16T09:53:35.583Z,684
2016-12-16T09:54:44.601Z,680
2016-12-16T09:55:53.601Z,680
2016-12-16T09:57:02.610Z,692
2016-12-16T09:58:11.915Z,704
2016-12-16T09:59:20.915Z,700
2016-12-16T10:00:29.921Z,692
2016-12-16T10:01:38.985Z,668
2016-12-16T10:02:48.327Z,704
2016-12-16T10:03:57.468Z,716
2016-12-16T10:05:06.813Z,688
2016-12-16T10:06:15.848Z,720
2016-12-16T10:07:24.844Z,720
2016-12-16T10:08:33.538Z,740
2016-12-16T10:09:42.600Z,680
2016-12-16T10:10:51.599Z,752
2016-12-16T10:12:00.305Z,756
2016-12-16T10:13:09.608Z,728
2016-12-16T10:14:18.320Z,684
2016-12-16T10:15:27.517Z,696
2016-12-16T10:16:36.216Z,720
2016-12-16T10:17:45.534Z,764
2016-12-16T10:18:55.134Z,680
2016-12-16T10:20:03.843Z,764
2016-12-16T10:21:12.847Z,712
2016-12-16T10:22:22.486Z,748
2016-12-16T10:23:31.791Z,708
2016-12-16T10:24:40.480Z,676
2016-12-16T10:25:49.159Z,688
2016-12-16T10:26:58.296Z,700
2016-12-16T10:28:06.986Z,740
2016-12-16T10:29:15.978Z,728
2016-12-16T10:30:24.955Z,700
2016-12-16T10:31:34.261Z,684
2016-12-16T10:32:43.111Z,704
2016-12-16T10:33:52.727Z,692
2016-12-16T10:35:01.426Z,732
2016-12-16T10:36:10.742Z,732
2016-12-16T10:37:20.047Z,788
2016-12-16T10:38:29.146Z,744
2016-12-16T10:39:38.497Z,736
2016-12-16T10:40:47.793Z,748
2016-12-16T10:41:56.777Z,760
2016-12-16T10:43:05.500Z,780
2016-12-16T10:44:14.552Z,752
2016-12-16T10:45:23.536Z,708
2016-12-16T10:46:32.550Z,728
2016-12-16T10:47:41.584Z,724
2016-12-16T10:48:50.272Z,684
2016-12-16T10:50:00.207Z,672
2016-12-16T10:51:08.893Z,696
2016-12-16T10:52:17.933Z,668
2016-12-16T10:53:26.931Z,652
2016-12-16T10:54:35.930Z,612
2016-12-16T10:55:44.920Z,620
2016-12-16T10:56:54.211Z,644
2016-12-16T10:58:02.911Z,676
2016-12-16T10:59:11.917Z,648
2016-12-16T11:00:20.912Z,664
2016-12-16T11:01:30.092Z,680
2016-12-16T11:02:39.113Z,696
2016-12-16T11:03:48.110Z,708
2016-12-16T11:04:57.423Z,700
2016-12-16T11:06:06.725Z,688
2016-12-16T11:07:15.722Z,676
2016-12-16T11:08:24.414Z,652
2016-12-16T11:09:33.436Z,652
2016-12-16T11:10:42.427Z,660
2016-12-16T11:11:51.447Z,656
2016-12-16T11:13:01.428Z,636
2016-12-16T11:14:10.415Z,628
2016-12-16T11:15:20.029Z,632
2016-12-16T11:16:29.029Z,620
2016-12-16T11:17:37.718Z,620
2016-12-16T11:18:46.714Z,624
2016-12-16T11:19:56.061Z,612
2016-12-16T11:21:05.366Z,604
2016-12-16T11:22:14.059Z,612
2016-12-16T11:23:23.409Z,620
2016-12-16T11:24:32.426Z,616
2016-12-16T11:25:41.736Z,608
2016-12-16T11:26:50.424Z,608
2016-12-16T11:27:59.433Z,612
2016-12-16T11:29:08.138Z,604
2016-12-16T11:30:17.550Z,600
2016-12-16T11:31:26.259Z,608
2016-12-16T11:32:35.564Z,604
2016-12-16T11:33:44.262Z,608
2016-12-16T11:34:53.311Z,612
2016-12-16T11:36:02.748Z,604
2016-12-16T11:37:11.754Z,612
2016-12-16T11:38:20.750Z,616
2016-12-16T11:39:29.765Z,628
2016-12-16T11:40:38.457Z,620
2016-12-16T11:41:47.785Z,612
2016-12-16T11:42:56.780Z,608
2016-12-16T11:44:06.083Z,620
2016-12-16T11:45:15.092Z,608
2016-12-16T11:46:24.096Z,608
2016-12-16T11:47:33.437Z,608
2016-12-16T11:48:42.425Z,608
2016-12-16T11:49:51.428Z,604
2016-12-16T11:51:00.423Z,604
2016-12-16T11:52:09.414Z,592
2016-12-16T11:53:18.568Z,604
2016-12-16T11:54:27.552Z,596
2016-12-16T11:55:36.845Z,588
2016-12-16T11:56:45.864Z,592
2016-12-16T11:57:54.553Z,592
2016-12-16T11:59:03.718Z,588
2016-12-16T12:00:13.014Z,588
2016-12-16T12:01:22.017Z,596
2016-12-16T12:02:30.710Z,592
2016-12-16T12:03:39.726Z,592
2016-12-16T12:04:49.083Z,584
2016-12-16T12:05:58.084Z,588
2016-12-16T12:07:07.141Z,584
2016-12-16T12:08:16.451Z,572
2016-12-16T12:09:25.156Z,576
2016-12-16T12:10:34.549Z,580
2016-12-16T12:11:43.553Z,580
2016-12-16T12:12:52.539Z,572
2016-12-16T12:14:01.579Z,572
2016-12-16T12:15:10.268Z,576
2016-12-16T12:16:19.385Z,572
2016-12-16T12:17:28.691Z,572
2016-12-16T12:18:38.008Z,564
2016-12-16T12:19:47.617Z,556
2016-12-16T12:20:56.618Z,552
2016-12-16T12:22:05.647Z,548
2016-12-16T12:23:14.949Z,548
2016-12-16T12:24:23.942Z,544
2016-12-16T12:25:32.933Z,536
2016-12-16T12:26:41.912Z,536
2016-12-16T12:27:50.908Z,532
2016-12-16T12:28:59.921Z,536
2016-12-16T12:30:08.927Z,528
2016-12-16T12:31:17.642Z,524
2016-12-16T12:32:26.965Z,528
2016-12-16T12:33:35.664Z,520
2016-12-16T12:34:45.261Z,520
2016-12-16T12:35:54.567Z,516
2016-12-16T12:37:03.252Z,516
2016-12-16T12:38:12.253Z,512
2016-12-16T12:39:21.332Z,508
2016-12-16T12:40:30.009Z,508
2016-12-16T12:41:38.693Z,504
2016-12-16T12:42:47.738Z,508
2016-12-16T12:43:56.431Z,504
2016-12-16T12:45:05.884Z,500
2016-12-16T12:46:15.485Z,500
2016-12-16T12:47:24.794Z,500
2016-12-16T12:48:33.499Z,496
2016-12-16T12:49:42.523Z,496
2016-12-16T12:50:51.973Z,492
2016-12-16T12:52:00.710Z,492
2016-12-16T12:53:09.407Z,492
2016-12-16T12:54:18.403Z,488
2016-12-16T12:55:27.401Z,488
2016-12-16T12:56:36.403Z,484
2016-12-16T12:57:45.398Z,480
2016-12-16T12:58:54.706Z,480
2016-12-16T13:00:03.704Z,480
2016-12-16T13:01:13.012Z,476
2016-12-16T13:02:22.123Z,480
2016-12-16T13:03:31.104Z,472
2016-12-16T13:04:40.450Z,472
2016-12-16T13:05:49.466Z,472
2016-12-16T13:06:58.156Z,468
2016-12-16T13:08:07.288Z,468
2016-12-16T13:09:15.987Z,464
2016-12-16T13:10:24.703Z,464
2016-12-16T13:11:33.701Z,460
2016-12-16T13:12:42.709Z,460
2016-12-16T13:13:51.724Z,456
2016-12-16T13:15:01.036Z,452
2016-12-16T13:16:09.729Z,452
2016-12-16T13:17:18.724Z,444
2016-12-16T13:18:27.431Z,440
2016-12-16T13:19:36.879Z,436
2016-12-16T13:20:45.881Z,436
2016-12-16T13:21:55.171Z,432
2016-12-16T13:23:03.855Z,428
2016-12-16T13:24:13.477Z,424
2016-12-16T13:25:22.874Z,424
2016-12-16T13:26:31.873Z,420
2016-12-16T13:27:40.561Z,420
2016-12-16T13:28:49.249Z,416
2016-12-16T13:29:58.547Z,412
2016-12-16T13:31:07.663Z,412
2016-12-16T13:32:16.963Z,408
2016-12-16T13:33:25.960Z,404
2016-12-16T13:34:35.284Z,404
2016-12-16T13:35:43.982Z,404
2016-12-16T13:36:52.976Z,400
2016-12-16T13:38:01.977Z,400
2016-12-16T13:39:10.984Z,396
2016-12-16T13:40:19.984Z,396
2016-12-16T13:41:28.704Z,396
2016-12-16T13:42:37.856Z,396
2016-12-16T13:43:46.861Z,392
2016-12-16T13:44:55.865Z,392
2016-12-16T13:46:04.562Z,388
2016-12-16T13:47:13.883Z,384
2016-12-16T13:48:22.975Z,384
2016-12-16T13:49:31.972Z,376
2016-12-16T13:50:40.968Z,376
2016-12-16T13:51:50.592Z,372
2016-12-16T13:53:00.514Z,368
2016-12-16T13:54:09.550Z,368
2016-12-16T13:55:18.850Z,364
2016-12-16T13:56:27.527Z,364
2016-12-16T13:57:36.841Z,360
2016-12-16T13:58:45.872Z,360
2016-12-16T13:59:54.875Z,356
2016-12-16T14:01:03.903Z,356
2016-12-16T14:02:12.913Z,352
2016-12-16T14:03:21.602Z,352
2016-12-16T14:04:31.202Z,348
2016-12-16T14:05:40.059Z,344
2016-12-16T14:06:48.756Z,336
2016-12-16T14:07:57.751Z,340
2016-12-16T14:09:06.797Z,336
2016-12-16T14:10:15.817Z,332
2016-12-16T14:11:25.112Z,328
2016-12-16T14:12:34.414Z,328
2016-12-16T14:13:43.718Z,324
2016-12-16T14:14:52.718Z,320
2016-12-16T14:16:01.707Z,316
2016-12-16T14:17:11.021Z,316
2016-12-16T14:18:19.729Z,308
2016-12-16T14:19:28.421Z,304
2016-12-16T14:20:37.747Z,304
2016-12-16T14:21:47.051Z,296
2016-12-16T14:22:56.198Z,292
2016-12-16T14:24:04.906Z,288
2016-12-16T14:25:13.905Z,280
2016-12-16T14:26:22.617Z,280
2016-12-16T14:27:31.597Z,272
2016-12-16T14:28:40.296Z,268
2016-12-16T14:29:50.231Z,260
2016-12-16T14:30:59.231Z,256
2016-12-16T14:32:08.227Z,252
2016-12-16T14:33:17.224Z,244
2016-12-16T14:34:26.009Z,240
2016-12-16T14:35:35.000Z,236
2016-12-16T14:36:43.688Z,232
2016-12-16T14:37:52.679Z,228
2016-12-16T14:39:01.962Z,220
2016-12-16T14:40:11.255Z,216
2016-12-16T14:41:19.944Z,208
2016-12-16T14:42:28.946Z,204
2016-12-16T14:43:37.942Z,196
2016-12-16T14:44:46.935Z,192
2016-12-16T14:45:56.071Z,188
2016-12-16T14:47:05.077Z,180
2016-12-16T14:48:14.378Z,176
2016-12-16T14:49:24.007Z,172
2016-12-16T14:50:33.011Z,168
2016-12-16T14:51:42.481Z,156
2016-12-16T14:55:36.432Z,144
2016-12-16T14:56:45.583Z,136
2016-12-16T14:57:54.271Z,128
2016-12-16T14:59:02.975Z,128
2016-12-16T15:00:11.675Z,124
2016-12-16T15:01:21.004Z,116
2016-12-16T15:02:30.608Z,108
2016-12-16T15:03:39.311Z,104
2016-12-16T15:04:48.605Z,100
2016-12-16T15:05:57.303Z,96
2016-12-16T15:07:06.324Z,88
2016-12-16T15:08:15.643Z,84
2016-12-16T15:09:24.659Z,76
2016-12-16T15:10:33.665Z,72
2016-12-16T15:11:43.621Z,68
2016-12-16T15:12:52.946Z,64
2016-12-16T15:14:01.787Z,60
2016-12-16T15:15:10.794Z,56
2016-12-16T15:16:19.786Z,52
2016-12-16T15:17:28.784Z,48
2016-12-16T15:18:38.426Z,44
2016-12-16T15:19:47.125Z,44
2016-12-16T15:20:55.818Z,36
2016-12-16T15:22:04.830Z,36
2016-12-16T15:23:13.542Z,32
2016-12-16T15:24:22.568Z,28
2016-12-16T15:25:32.216Z,28
2016-12-16T15:26:41.851Z,28
2016-12-16T15:27:51.162Z,24
2016-12-16T15:29:00.847Z,24
2016-12-16T15:30:09.559Z,20
2016-12-16T15:31:18.883Z,16
2016-12-16T15:32:27.596Z,16
2016-12-16T15:33:36.917Z,12
2016-12-16T15:34:46.232Z,12
2016-12-16T15:35:55.250Z,12
2016-12-16T15:37:04.573Z,8
2016-12-16T15:38:13.587Z,8
2016-12-16T15:39:22.634Z,8
2016-12-16T15:40:31.332Z,8
2016-12-16T15:41:40.644Z,8
2016-12-16T15:42:49.966Z,4
2016-12-16T15:43:59.603Z,4
2016-12-16T15:45:08.613Z,4
2016-12-16T15:46:18.221Z,4
2016-12-16T15:47:27.538Z,0
2016-12-16T15:48:36.610Z,4
2016-12-16T15:49:45.921Z,4
2016-12-16T15:50:54.912Z,0
2016-12-16T15:52:03.592Z,0
2016-12-16T15:53:12.595Z,0
2016-12-16T15:54:21.577Z,0
2016-12-16T15:55:30.596Z,0
2016-12-16T15:56:39.283Z,0
2016-12-16T15:57:48.584Z,0
2016-12-16T15:58:57.884Z,0
2016-12-16T16:00:07.218Z,0
2016-12-16T16:01:16.223Z,0
2016-12-16T16:02:25.851Z,0
2016-12-16T16:03:34.861Z,0
2016-12-16T16:04:44.239Z,0
2016-12-16T16:05:53.554Z,0
2016-12-16T16:07:02.290Z,0
2016-12-16T16:08:11.595Z,0
2016-12-16T16:09:20.289Z,0
2016-12-16T16:10:28.984Z,0
2016-12-16T16:11:38.095Z,0
2016-12-16T16:12:47.111Z,0
2016-12-16T16:13:56.103Z,0
2016-12-16T16:15:04.785Z,0
2016-12-16T16:16:13.504Z,0
2016-12-16T16:17:22.201Z,0
2016-12-16T16:18:31.220Z,0
2016-12-16T16:19:39.927Z,0
2016-12-16T16:20:49.296Z,0
2016-12-16T16:21:58.301Z,0
2016-12-16T16:23:07.328Z,0
2016-12-16T16:24:16.639Z,0
2016-12-16T16:25:25.634Z,0
2016-12-16T16:26:34.649Z,0
2016-12-16T16:27:43.962Z,0
2016-12-16T16:28:53.023Z,0
2016-12-16T16:30:01.695Z,0